Time;durP1;ratioP1;P1;durP2;ratioP2;P2;SDS_P1;SDS_P2;PMS_P1;PMS_P2;Temp;Humidity;BMP_temperature;BMP_pressure;BME280_temperature;BME280_humidity;BME280_pressure;Samples;Min_cycle;Max_cycle;Signal;HPM_P1;HPM_P2
2023/03/15 00:00:57;;;;;;;4.88;3.35;;;;;;;-0.47;100.00;92495.50;2572186;22;20332;-84
2023/03/15 00:02:06;;;;;;;4.97;3.10;;;;;;;-0.51;100.00;92499.97;2583763;22;20021;-86
2023/03/15 00:03:15;;;;;;;4.75;3.15;;;;;;;-0.53;100.00;92502.97;2571190;23;20034;-89
2023/03/15 00:04:23;;;;;;;7.72;3.20;;;;;;;-0.42;100.00;92510.94;2560305;23;20409;-86
2023/03/15 00:05:31;;;;;;;3.85;3.45;;;;;;;-0.50;100.00;92504.09;2573372;22;20013;-85
2023/03/15 00:06:38;;;;;;;4.38;3.53;;;;;;;-0.43;100.00;92514.69;2570771;23;20012;-86
2023/03/15 00:07:46;;;;;;;5.22;3.70;;;;;;;-0.51;100.00;92513.09;2559846;23;20084;-88
2023/03/15 00:08:54;;;;;;;5.57;3.90;;;;;;;-0.55;100.00;92514.94;2572878;22;20034;-86
2023/03/15 00:10:03;;;;;;;3.80;3.10;;;;;;;-0.33;100.00;92515.88;2583986;22;20011;-88
2023/03/15 00:11:20;;;;;;;5.57;3.78;;;;;;;-0.43;100.00;92513.94;2582017;23;20393;-86
2023/03/15 00:12:24;;;;;;;9.73;4.10;;;;;;;-0.56;100.00;92516.81;2585227;22;20074;-88
2023/03/15 00:13:34;;;;;;;9.60;4.13;;;;;;;-0.62;100.00;92522.72;2570415;23;20000;-85
2023/03/15 00:14:42;;;;;;;10.88;4.97;;;;;;;-0.68;100.00;92522.31;2571299;23;20012;-86
2023/03/15 00:16:10;;;;;;;8.90;4.22;;;;;;;-0.74;100.00;92520.38;2571287;23;20004;-89
2023/03/15 00:17:33;;;;;;;7.40;3.83;;;;;;;-0.69;100.00;92526.03;2580844;22;20007;-89
2023/03/15 00:18:42;;;;;;;9.23;3.85;;;;;;;-0.58;100.00;92521.66;2586849;22;20008;-89
2023/03/15 00:19:52;;;;;;;7.03;4.00;;;;;;;-0.45;100.00;92529.28;2571226;23;20050;-85
2023/03/15 00:21:00;;;;;;;5.90;2.95;;;;;;;-0.40;100.00;92527.06;2561060;23;20008;-86
2023/03/15 00:22:09;;;;;;;5.30;3.55;;;;;;;-0.53;100.00;92536.31;2560051;23;20005;-87
2023/03/15 00:23:19;;;;;;;7.90;3.00;;;;;;;-0.59;100.00;92540.38;2560426;23;20009;-85
2023/03/15 00:24:27;;;;;;;4.88;2.80;;;;;;;-0.62;100.00;92533.22;2560816;23;20012;-87
2023/03/15 00:25:39;;;;;;;6.40;3.00;;;;;;;-0.76;100.00;92544.31;2560322;23;20428;-88
2023/03/15 00:26:43;;;;;;;4.28;2.67;;;;;;;-0.52;100.00;92548.34;2572076;23;20063;-89
2023/03/15 00:27:44;;;;;;;2.88;2.40;;;;;;;-0.48;100.00;92550.97;2569808;23;20019;-87
2023/03/15 00:28:46;;;;;;;3.40;2.20;;;;;;;-0.65;100.00;92544.47;2582148;22;20477;-86
2023/03/15 00:29:55;;;;;;;5.97;2.75;;;;;;;-0.74;100.00;92549.97;2570081;23;20007;-86
2023/03/15 00:31:21;;;;;;;4.72;2.50;;;;;;;-0.76;100.00;92554.81;2571370;23;20009;-85
2023/03/15 00:32:30;;;;;;;5.38;2.20;;;;;;;-0.81;100.00;92569.00;2567289;23;20061;-88
2023/03/15 00:33:38;;;;;;;4.47;2.45;;;;;;;-0.64;100.00;92567.72;2560908;23;20000;-89
2023/03/15 00:34:47;;;;;;;2.53;1.70;;;;;;;-0.72;100.00;92566.13;2560304;23;20318;-88
2023/03/15 00:35:55;;;;;;;5.82;1.90;;;;;;;-0.87;100.00;92578.31;2560652;23;20641;-87
2023/03/15 00:37:00;;;;;;;2.95;1.50;;;;;;;-0.91;100.00;92566.28;2559977;23;20005;-84
2023/03/15 00:38:08;;;;;;;5.38;1.60;;;;;;;-1.02;100.00;92568.75;2571468;22;20071;-85
2023/03/15 00:39:09;;;;;;;4.40;1.73;;;;;;;-0.97;100.00;92571.06;2571117;23;20004;-87
2023/03/15 00:40:11;;;;;;;6.38;1.38;;;;;;;-0.93;100.00;92576.34;2557257;23;20001;-86
2023/03/15 00:41:16;;;;;;;6.15;2.08;;;;;;;-0.92;100.00;92577.84;2570336;22;20024;-87
2023/03/15 00:42:18;;;;;;;5.65;1.73;;;;;;;-0.93;100.00;92581.59;2570231;23;20012;-88
2023/03/15 00:43:20;;;;;;;5.38;1.60;;;;;;;-1.02;100.00;92585.25;2570036;22;20143;-85
2023/03/15 00:44:25;;;;;;;6.20;1.60;;;;;;;-1.09;100.00;92585.16;2582330;22;20031;-87
2023/03/15 00:45:26;;;;;;;4.00;2.28;;;;;;;-0.97;100.00;92586.03;2583108;22;20000;-89
2023/03/15 00:46:27;;;;;;;5.78;2.33;;;;;;;-0.99;100.00;92591.66;2569584;23;20412;-89
2023/03/15 00:47:29;;;;;;;5.80;1.98;;;;;;;-1.09;100.00;92585.16;2557454;23;20005;-85
2023/03/15 00:48:31;;;;;;;5.18;2.13;;;;;;;-0.99;100.00;92594.28;2557070;23;20052;-89
2023/03/15 00:49:32;;;;;;;6.43;2.00;;;;;;;-0.80;100.00;92591.50;2569748;23;20004;-84
2023/03/15 00:50:33;;;;;;;2.97;2.15;;;;;;;-0.91;100.00;92582.75;2557535;23;20032;-87
2023/03/15 00:51:36;;;;;;;5.65;1.98;;;;;;;-0.82;100.00;92585.13;2557245;23;20440;-91
2023/03/15 00:52:37;;;;;;;4.40;2.17;;;;;;;-0.80;100.00;92588.13;2570438;22;20000;-86
2023/03/15 00:53:41;;;;;;;5.45;2.28;;;;;;;-0.92;100.00;92585.72;2569807;23;20452;-87
2023/03/15 00:54:43;;;;;;;7.68;2.60;;;;;;;-0.83;100.00;92594.09;2558039;23;20016;-88
2023/03/15 00:55:44;;;;;;;10.00;2.55;;;;;;;-0.76;100.00;92591.56;2569882;22;20696;-87
2023/03/15 00:56:56;;;;;;;5.47;2.40;;;;;;;-1.06;100.00;92589.69;2569516;23;20004;-87
2023/03/15 00:57:57;;;;;;;5.22;2.15;;;;;;;-0.92;100.00;92596.22;2562330;23;20043;-85
2023/03/15 00:58:59;;;;;;;5.68;2.42;;;;;;;-0.91;100.00;92592.50;2557009;23;20005;-87
2023/03/15 01:00:07;;;;;;;4.55;1.98;;;;;;;-0.89;100.00;92603.38;2556593;23;20016;-86
2023/03/15 01:01:20;;;;;;;2.38;2.05;;;;;;;-0.89;100.00;92595.50;2560115;23;20027;-84
2023/03/15 01:02:21;;;;;;;6.28;2.30;;;;;;;-0.85;100.00;92606.81;2572022;23;20001;-87
2023/03/15 01:03:22;;;;;;;2.42;1.85;;;;;;;-0.99;100.00;92599.53;2569605;22;20424;-87
2023/03/15 01:04:23;;;;;;;4.20;2.40;;;;;;;-1.23;100.00;92600.69;2569614;23;20412;-85
2023/03/15 01:05:25;;;;;;;2.42;1.90;;;;;;;-1.07;100.00;92601.28;2569507;23;20019;-89
2023/03/15 01:06:28;;;;;;;5.47;2.45;;;;;;;-0.96;100.00;92604.06;2582029;22;20011;-84
2023/03/15 01:07:29;;;;;;;7.30;2.20;;;;;;;-1.18;100.00;92608.28;2582638;22;20009;-83
2023/03/15 01:08:30;;;;;;;4.88;2.25;;;;;;;-1.15;100.00;92607.53;2569328;23;20102;-86
2023/03/15 01:09:31;;;;;;;4.13;2.00;;;;;;;-1.30;100.00;92611.84;2569746;22;20524;-84
2023/03/15 01:10:34;;;;;;;7.68;2.38;;;;;;;-1.31;100.00;92605.09;2569464;23;20028;-86
2023/03/15 01:11:35;;;;;;;9.07;2.10;;;;;;;-1.26;100.00;92606.66;2570585;22;20001;-84
2023/03/15 01:12:36;;;;;;;6.20;2.17;;;;;;;-1.30;100.00;92611.09;2581510;23;20020;-87
2023/03/15 01:13:37;;;;;;;5.53;2.10;;;;;;;-1.39;100.00;92610.59;2569538;22;20051;-82
2023/03/15 01:14:39;;;;;;;10.38;3.15;;;;;;;-1.35;100.00;92619.25;2569470;23;20369;-84
2023/03/15 01:15:44;;;;;;;5.53;2.17;;;;;;;-1.28;100.00;92606.25;2557357;23;20321;-82
2023/03/15 01:16:45;;;;;;;3.53;2.20;;;;;;;-1.44;100.00;92621.38;2583239;22;20008;-85
2023/03/15 01:17:46;;;;;;;5.50;2.40;;;;;;;-1.50;100.00;92617.53;2595186;22;19999;-85
2023/03/15 01:18:48;;;;;;;4.47;2.20;;;;;;;-1.43;100.00;92615.78;2581581;23;19996;-87
2023/03/15 01:19:50;;;;;;;5.65;2.03;;;;;;;-1.33;100.00;92615.16;2556875;23;20409;-84
2023/03/15 01:20:51;;;;;;;6.35;2.40;;;;;;;-1.41;100.00;92621.41;2557764;23;20005;-83
2023/03/15 01:21:52;;;;;;;4.55;2.33;;;;;;;-1.35;100.00;92617.41;2556977;23;20124;-81
2023/03/15 01:22:53;;;;;;;7.68;2.45;;;;;;;-1.45;100.00;92620.59;2569370;23;20435;-85
2023/03/15 01:23:54;;;;;;;5.28;2.25;;;;;;;-1.49;100.00;92626.91;2569330;23;20036;-83
2023/03/15 01:24:55;;;;;;;3.35;2.50;;;;;;;-1.58;100.00;92619.28;2569662;23;20101;-86
2023/03/15 01:26:03;;;;;;;5.75;2.55;;;;;;;-1.39;100.00;92634.19;2569641;23;20039;-83
2023/03/15 01:27:03;;;;;;;6.88;2.88;;;;;;;-1.43;100.00;92630.75;2572114;22;20004;-86
2023/03/15 01:28:05;;;;;;;6.13;2.58;;;;;;;-1.57;100.00;92629.44;2569175;23;20004;-81
2023/03/15 01:29:06;;;;;;;6.60;2.40;;;;;;;-1.58;100.00;92635.78;2569662;23;20000;-85
2023/03/15 01:30:08;;;;;;;4.05;2.35;;;;;;;-1.51;100.00;92627.25;2557009;23;20017;-85
2023/03/15 01:31:17;;;;;;;5.60;2.58;;;;;;;-1.45;100.00;92638.94;2569869;22;20079;-87
2023/03/15 01:32:18;;;;;;;6.22;2.50;;;;;;;-1.36;100.00;92629.00;2570906;23;20742;-84
2023/03/15 01:33:20;;;;;;;7.03;2.50;;;;;;;-1.54;100.00;92636.59;2556815;23;20111;-86
2023/03/15 01:34:20;;;;;;;7.20;2.75;;;;;;;-1.61;100.00;92633.09;2557280;23;20000;-86
2023/03/15 01:35:21;;;;;;;4.88;2.42;;;;;;;-1.75;100.00;92635.50;2569597;23;20491;-84
2023/03/15 01:36:23;;;;;;;5.15;2.60;;;;;;;-1.66;100.00;92636.00;2556931;23;20008;-82
2023/03/15 01:37:25;;;;;;;6.25;2.35;;;;;;;-1.64;100.00;92639.78;2569643;23;20024;-85
2023/03/15 01:38:26;;;;;;;10.32;2.58;;;;;;;-1.69;100.00;92642.69;2557292;23;20004;-85
2023/03/15 01:39:28;;;;;;;7.95;2.92;;;;;;;-1.58;100.00;92643.63;2557091;23;20440;-85
2023/03/15 01:40:29;;;;;;;6.32;2.60;;;;;;;-1.60;100.00;92648.47;2569793;22;20091;-88
2023/03/15 01:41:30;;;;;;;6.10;2.63;;;;;;;-1.58;100.00;92650.72;2569343;23;20004;-85
2023/03/15 01:42:31;;;;;;;3.88;2.40;;;;;;;-1.69;100.00;92658.41;2569448;22;20440;-89
2023/03/15 01:43:32;;;;;;;6.07;2.28;;;;;;;-1.78;100.00;92653.41;2569607;23;20011;-85
2023/03/15 01:44:53;;;;;;;7.40;2.40;;;;;;;-1.61;100.00;92656.69;2557214;23;20013;-85
2023/03/15 01:46:05;;;;;;;7.47;2.33;;;;;;;-1.66;100.00;92652.50;2565157;23;20122;-85
2023/03/15 01:47:06;;;;;;;4.97;2.50;;;;;;;-1.82;100.00;92652.59;2574250;22;20008;-85
2023/03/15 01:48:07;;;;;;;4.97;2.58;;;;;;;-1.85;100.00;92655.16;2569172;23;20005;-86
2023/03/15 01:49:29;;;;;;;8.80;2.63;;;;;;;-1.71;100.00;92654.63;2569218;23;20491;-83
2023/03/15 01:50:30;;;;;;;6.03;2.08;;;;;;;-1.45;100.00;92667.03;2574007;23;20050;-88
2023/03/15 01:51:45;;;;;;;6.65;2.40;;;;;;;-1.60;100.00;92653.69;2569627;22;20024;-86
2023/03/15 01:52:46;;;;;;;9.00;2.17;;;;;;;-1.68;100.00;92656.56;2572138;23;20034;-84
2023/03/15 01:54:05;;;;;;;4.50;2.40;;;;;;;-1.80;100.00;92647.00;2569425;23;20000;-86
2023/03/15 01:55:15;;;;;;;6.82;2.40;;;;;;;-1.84;100.00;92660.06;2576466;22;20104;-86
2023/03/15 01:56:16;;;;;;;5.55;2.30;;;;;;;-1.76;100.00;92655.66;2583902;22;20027;-84
2023/03/15 01:57:54;;;;;;;6.05;2.58;;;;;;;-1.75;100.00;92661.69;2569487;23;20004;-84
2023/03/15 01:58:57;;;;;;;6.63;2.33;;;;;;;-1.61;100.00;92661.91;2551512;23;20020;-85
2023/03/15 02:00:10;;;;;;;5.43;2.22;;;;;;;-1.63;100.00;92659.63;2562439;23;20345;-84
2023/03/15 02:01:13;;;;;;;3.63;2.22;;;;;;;-1.64;100.00;92667.84;2561713;23;20001;-86
2023/03/15 02:02:14;;;;;;;3.78;2.20;;;;;;;-1.57;100.00;92666.09;2557522;23;20088;-85
2023/03/15 02:03:19;;;;;;;5.70;2.42;;;;;;;-1.74;100.00;92665.81;2557056;23;20038;-86
2023/03/15 02:04:27;;;;;;;6.30;2.65;;;;;;;-1.80;100.00;92660.88;2558631;23;20048;-83
2023/03/15 02:05:38;;;;;;;4.45;2.90;;;;;;;-1.67;100.00;92671.16;2559877;23;20579;-85
2023/03/15 02:06:45;;;;;;;8.18;4.07;;;;;;;-1.57;100.00;92667.97;2561180;23;20796;-86
2023/03/15 02:07:53;;;;;;;4.63;2.47;;;;;;;-1.55;100.00;92669.13;2559289;23;20104;-85
2023/03/15 02:08:59;;;;;;;6.88;3.25;;;;;;;-1.67;100.00;92666.66;2570869;23;20015;-85
2023/03/15 02:10:04;;;;;;;4.07;2.85;;;;;;;-1.75;100.00;92669.56;2582811;22;20042;-85
2023/03/15 02:11:05;;;;;;;8.15;3.17;;;;;;;-1.61;100.00;92665.28;2581558;23;20055;-87
2023/03/15 02:12:08;;;;;;;6.20;3.10;;;;;;;-1.49;100.00;92667.00;2556959;23;20008;-82
2023/03/15 02:13:12;;;;;;;6.93;3.22;;;;;;;-1.43;100.00;92670.81;2557294;23;20012;-83
2023/03/15 02:14:14;;;;;;;5.68;2.90;;;;;;;-1.59;100.00;92665.69;2558320;23;20001;-85
2023/03/15 02:15:15;;;;;;;5.25;3.28;;;;;;;-1.62;100.00;92666.41;2557080;23;20011;-85
2023/03/15 02:16:17;;;;;;;7.55;3.55;;;;;;;-1.70;100.00;92666.63;2556982;23;20008;-87
2023/03/15 02:17:22;;;;;;;9.98;3.33;;;;;;;-1.82;100.00;92672.78;2557477;23;20029;-84
2023/03/15 02:18:26;;;;;;;6.78;3.00;;;;;;;-1.77;100.00;92672.50;2558556;23;20008;-84
2023/03/15 02:20:08;;;;;;;7.38;3.10;;;;;;;-1.47;100.00;92664.75;2570350;23;20016;-86
2023/03/15 02:21:21;;;;;;;5.68;3.20;;;;;;;-1.67;100.00;92669.28;2573505;23;20089;-83
2023/03/15 02:22:43;;;;;;;5.32;2.95;;;;;;;-1.48;100.00;92671.13;2561816;23;20060;-83
2023/03/15 02:23:56;;;;;;;9.13;3.60;;;;;;;-1.54;100.00;92669.88;2565686;23;20077;-85
2023/03/15 02:25:17;;;;;;;8.10;3.70;;;;;;;-1.68;100.00;92675.66;2562147;23;20044;-85
2023/03/15 02:26:43;;;;;;;9.18;3.67;;;;;;;-1.70;100.00;92672.63;2586186;22;20007;-86
2023/03/15 02:27:44;;;;;;;5.65;3.15;;;;;;;-1.58;100.00;92679.53;2581898;23;20004;-85
2023/03/15 02:28:46;;;;;;;6.90;3.50;;;;;;;-1.75;100.00;92678.16;2557061;23;20064;-83
2023/03/15 02:29:47;;;;;;;10.63;4.15;;;;;;;-1.55;100.00;92679.59;2569223;22;20008;-84
2023/03/15 02:30:49;;;;;;;8.02;3.55;;;;;;;-1.44;100.00;92689.53;2569473;23;19996;-88
2023/03/15 02:31:54;;;;;;;6.40;3.25;;;;;;;-1.29;100.00;92678.88;2569605;23;20008;-86
2023/03/15 02:32:56;;;;;;;9.95;3.40;;;;;;;-1.35;100.00;92682.19;2570369;22;20039;-83
2023/03/15 02:33:57;;;;;;;6.78;3.80;;;;;;;-1.45;100.00;92683.50;2569335;23;20015;-86
2023/03/15 02:34:58;;;;;;;9.80;3.38;;;;;;;-1.44;100.00;92679.78;2557018;23;20092;-85
2023/03/15 02:36:12;;;;;;;8.35;3.10;;;;;;;-1.56;100.00;92677.34;2556965;23;20128;-87
2023/03/15 02:37:14;;;;;;;7.18;3.33;;;;;;;-1.60;100.00;92679.16;2561958;23;20344;-85
2023/03/15 02:38:16;;;;;;;7.72;3.95;;;;;;;-1.70;100.00;92680.50;2557428;23;20023;-88
2023/03/15 02:39:19;;;;;;;8.65;3.83;;;;;;;-1.68;100.00;92685.38;2570050;22;20579;-86
2023/03/15 02:40:23;;;;;;;5.88;3.22;;;;;;;-1.63;100.00;92685.06;2569726;23;20112;-81
2023/03/15 02:41:31;;;;;;;13.07;3.50;;;;;;;-1.54;100.00;92677.75;2570333;22;20008;-84
2023/03/15 02:42:32;;;;;;;6.57;2.90;;;;;;;-1.40;100.00;92688.47;2570223;23;20021;-85
2023/03/15 02:43:35;;;;;;;7.13;3.20;;;;;;;-1.45;100.00;92682.75;2556727;23;20514;-82
2023/03/15 02:44:43;;;;;;;5.07;3.05;;;;;;;-1.54;100.00;92688.22;2557439;23;20557;-88
2023/03/15 02:45:48;;;;;;;10.32;3.28;;;;;;;-1.59;100.00;92684.03;2561153;23;20441;-85
2023/03/15 02:46:53;;;;;;;7.60;3.35;;;;;;;-1.62;100.00;92684.75;2559117;23;20471;-82
2023/03/15 02:47:55;;;;;;;6.25;3.40;;;;;;;-1.54;100.00;92683.75;2557999;23;20400;-83
2023/03/15 02:48:57;;;;;;;6.93;3.25;;;;;;;-1.45;100.00;92693.22;2557088;23;20539;-84
2023/03/15 02:49:58;;;;;;;10.23;4.25;;;;;;;-1.28;100.00;92696.13;2557627;23;20016;-86
2023/03/15 02:51:00;;;;;;;6.05;2.90;;;;;;;-1.39;100.00;92694.47;2557256;23;20009;-85
2023/03/15 02:52:02;;;;;;;7.97;3.30;;;;;;;-1.41;100.00;92694.03;2557544;23;20444;-87
2023/03/15 02:53:05;;;;;;;7.65;3.83;;;;;;;-1.26;100.00;92698.41;2556803;23;20012;-88
2023/03/15 02:54:06;;;;;;;5.90;2.88;;;;;;;-1.30;100.00;92698.34;2557954;23;20031;-85
2023/03/15 02:55:08;;;;;;;6.90;3.28;;;;;;;-1.42;100.00;92703.03;2556877;23;20009;-86
2023/03/15 02:56:09;;;;;;;7.53;3.15;;;;;;;-1.47;100.00;92693.59;2569444;22;20116;-81
2023/03/15 02:57:12;;;;;;;5.50;2.80;;;;;;;-1.41;100.00;92704.53;2581775;23;20000;-91
2023/03/15 02:58:13;;;;;;;4.53;3.17;;;;;;;-1.46;100.00;92696.97;2569502;23;20070;-88
2023/03/15 02:59:14;;;;;;;4.72;2.92;;;;;;;-1.47;100.00;92706.69;2569318;23;20436;-86
2023/03/15 03:00:15;;;;;;;5.38;2.78;;;;;;;-1.52;100.00;92712.97;2556788;23;20055;-88
2023/03/15 03:01:18;;;;;;;11.55;3.30;;;;;;;-1.49;100.00;92708.13;2556953;23;20013;-90
2023/03/15 03:02:20;;;;;;;8.30;2.90;;;;;;;-1.21;100.00;92713.09;2557280;23;20009;-85
2023/03/15 03:03:21;;;;;;;9.23;3.40;;;;;;;-1.17;100.00;92714.66;2569770;22;20088;-86
2023/03/15 03:04:23;;;;;;;7.90;3.40;;;;;;;-1.39;100.00;92716.19;2568851;23;20067;-85
2023/03/15 03:05:35;;;;;;;7.45;3.10;;;;;;;-1.48;100.00;92720.16;2556908;23;20005;-90
2023/03/15 03:06:36;;;;;;;10.43;3.00;;;;;;;-1.40;100.00;92721.78;2573996;22;20004;-87
2023/03/15 03:07:37;;;;;;;10.77;2.90;;;;;;;-1.36;100.00;92722.56;2569363;23;20417;-85
2023/03/15 03:08:41;;;;;;;6.68;3.33;;;;;;;-1.45;100.00;92717.56;2557131;23;20349;-86
2023/03/15 03:09:41;;;;;;;6.90;3.63;;;;;;;-1.56;100.00;92725.25;2570488;22;20016;-87
2023/03/15 03:10:42;;;;;;;8.63;3.08;;;;;;;-1.59;100.00;92728.56;2581763;23;20012;-88
2023/03/15 03:11:43;;;;;;;8.15;3.67;;;;;;;-1.63;100.00;92732.25;2569232;23;20004;-85
2023/03/15 03:12:45;;;;;;;10.30;3.03;;;;;;;-1.71;100.00;92731.38;2569545;22;20011;-85
2023/03/15 03:13:50;;;;;;;6.20;3.10;;;;;;;-1.76;100.00;92726.41;2581765;23;20000;-85
2023/03/15 03:14:53;;;;;;;8.23;2.97;;;;;;;-1.85;100.00;92733.72;2558133;23;20009;-84
2023/03/15 03:15:59;;;;;;;7.13;3.15;;;;;;;-1.83;100.00;92734.91;2558722;23;20013;-88
2023/03/15 03:17:00;;;;;;;10.93;3.83;;;;;;;-1.82;100.00;92741.66;2558558;23;20005;-86
2023/03/15 03:18:01;;;;;;;7.68;3.17;;;;;;;-1.76;100.00;92734.25;2556643;23;20302;-87
2023/03/15 03:19:03;;;;;;;6.80;2.75;;;;;;;-1.54;100.00;92744.03;2557075;23;20005;-85
2023/03/15 03:20:10;;;;;;;6.40;2.90;;;;;;;-1.63;100.00;92734.84;2557153;23;20432;-85
2023/03/15 03:21:13;;;;;;;7.97;2.58;;;;;;;-1.54;100.00;92744.03;2571977;22;20004;-88
2023/03/15 03:22:14;;;;;;;14.57;3.38;;;;;;;-1.60;100.00;92747.28;2569716;23;20039;-86
2023/03/15 03:23:15;;;;;;;7.32;3.20;;;;;;;-1.66;100.00;92743.44;2569923;22;20039;-86
2023/03/15 03:24:16;;;;;;;6.85;2.63;;;;;;;-1.66;100.00;92744.19;2582474;22;20054;-85
2023/03/15 03:25:17;;;;;;;8.52;3.08;;;;;;;-1.66;100.00;92743.44;2569749;23;20063;-88
2023/03/15 03:26:18;;;;;;;5.47;2.60;;;;;;;-1.88;100.00;92739.69;2557486;23;20033;-88
2023/03/15 03:27:20;;;;;;;6.13;2.55;;;;;;;-1.96;100.00;92744.00;2557578;23;20482;-86
2023/03/15 03:28:23;;;;;;;15.57;2.90;;;;;;;-2.00;100.00;92748.44;2557916;23;20095;-85
2023/03/15 03:29:25;;;;;;;5.43;2.72;;;;;;;-1.95;100.00;92756.00;2570591;23;20013;-88
2023/03/15 03:30:26;;;;;;;9.63;2.97;;;;;;;-1.99;100.00;92749.19;2557777;23;20028;-89
2023/03/15 03:31:28;;;;;;;13.88;3.25;;;;;;;-2.15;100.00;92750.03;2557492;23;20001;-87
2023/03/15 03:32:29;;;;;;;7.38;2.80;;;;;;;-2.19;100.00;92754.44;2557433;23;20004;-86
2023/03/15 03:33:31;;;;;;;10.68;2.83;;;;;;;-2.20;100.00;92755.50;2570011;23;20084;-89
2023/03/15 03:34:32;;;;;;;6.20;3.05;;;;;;;-2.21;100.00;92761.09;2557855;23;20033;-88
2023/03/15 03:35:33;;;;;;;16.73;3.55;;;;;;;-2.27;100.00;92755.38;2569738;23;20127;-86
2023/03/15 03:36:35;;;;;;;11.35;2.90;;;;;;;-2.34;100.00;92750.75;2582290;22;20012;-87
2023/03/15 03:37:36;;;;;;;9.45;3.10;;;;;;;-2.36;100.00;92752.22;2570040;23;20028;-85
2023/03/15 03:38:37;;;;;;;6.65;3.00;;;;;;;-2.36;100.00;92754.81;2569763;23;20083;-88
2023/03/15 03:39:38;;;;;;;10.80;2.95;;;;;;;-2.45;100.00;92757.66;2570342;22;20023;-86
2023/03/15 03:40:40;;;;;;;6.85;2.70;;;;;;;-2.41;100.00;92760.34;2569954;23;20448;-86
2023/03/15 03:41:41;;;;;;;6.68;2.90;;;;;;;-2.39;100.00;92764.13;2558018;23;20000;-88
2023/03/15 03:42:42;;;;;;;9.77;2.80;;;;;;;-2.39;100.00;92755.50;2557506;23;20512;-88
2023/03/15 03:43:43;;;;;;;10.27;3.05;;;;;;;-2.44;100.00;92761.00;2570103;23;20001;-87
2023/03/15 03:44:44;;;;;;;7.95;2.97;;;;;;;-2.48;100.00;92765.41;2570025;23;20012;-87
2023/03/15 03:45:45;;;;;;;8.38;3.10;;;;;;;-2.48;100.00;92765.41;2557398;23;20429;-86
2023/03/15 03:46:46;;;;;;;9.48;3.13;;;;;;;-2.58;100.00;92764.84;2557673;23;20009;-88
2023/03/15 03:47:49;;;;;;;5.50;2.72;;;;;;;-2.39;100.00;92779.81;2570009;23;20013;-84
2023/03/15 03:48:51;;;;;;;5.97;2.80;;;;;;;-2.51;100.00;92776.56;2557923;23;20005;-85
2023/03/15 03:49:52;;;;;;;3.78;2.47;;;;;;;-2.62;100.00;92776.34;2570405;22;20005;-86
2023/03/15 03:50:53;;;;;;;6.68;2.53;;;;;;;-2.71;100.00;92779.13;2569701;23;20047;-88
2023/03/15 03:51:54;;;;;;;8.35;2.70;;;;;;;-2.82;100.00;92778.13;2569854;22;20581;-84
2023/03/15 03:52:55;;;;;;;6.95;2.33;;;;;;;-2.76;100.00;92786.50;2582339;22;20042;-86
2023/03/15 03:53:56;;;;;;;7.15;2.50;;;;;;;-2.81;100.00;92787.47;2594921;22;20359;-86
2023/03/15 03:54:57;;;;;;;10.80;3.22;;;;;;;-2.87;100.00;92781.75;2582297;23;20114;-85
2023/03/15 03:55:58;;;;;;;8.18;2.50;;;;;;;-2.85;100.00;92789.28;2557633;23;20048;-86
2023/03/15 03:56:59;;;;;;;7.95;2.55;;;;;;;-2.94;100.00;92791.28;2569876;22;20011;-85
2023/03/15 03:58:00;;;;;;;9.38;3.97;;;;;;;-3.01;100.00;92797.13;2569639;23;20012;-86
2023/03/15 03:59:01;;;;;;;5.93;3.10;;;;;;;-3.10;100.00;92792.06;2569700;23;20011;-87
2023/03/15 04:00:03;;;;;;;7.15;2.72;;;;;;;-2.95;100.00;92795.00;2557514;23;20108;-85
2023/03/15 04:01:04;;;;;;;7.05;2.75;;;;;;;-2.95;100.00;92798.38;2557429;23;20009;-87
2023/03/15 04:02:05;;;;;;;6.60;2.70;;;;;;;-2.89;100.00;92804.13;2569801;22;20067;-90
2023/03/15 04:03:07;;;;;;;5.32;2.42;;;;;;;-2.93;100.00;92793.59;2569556;23;20005;-87
2023/03/15 04:04:08;;;;;;;9.43;3.08;;;;;;;-3.01;100.00;92802.34;2557619;23;20025;-87
2023/03/15 04:05:10;;;;;;;6.30;2.70;;;;;;;-3.01;100.00;92796.38;2569411;23;20012;-88
2023/03/15 04:06:11;;;;;;;5.18;2.15;;;;;;;-3.00;100.00;92801.25;2557965;23;20088;-87
2023/03/15 04:07:12;;;;;;;5.63;2.30;;;;;;;-3.03;100.00;92801.91;2557454;23;20005;-86
2023/03/15 04:08:12;;;;;;;8.65;2.75;;;;;;;-3.09;100.00;92798.81;2569564;23;20012;-89
2023/03/15 04:09:15;;;;;;;6.10;2.30;;;;;;;-3.07;100.00;92811.56;2557455;23;20047;-85
2023/03/15 04:10:16;;;;;;;5.13;2.40;;;;;;;-3.04;100.00;92797.78;2570378;22;20005;-85
2023/03/15 04:11:17;;;;;;;8.15;2.67;;;;;;;-3.07;100.00;92798.50;2582189;23;20099;-85
2023/03/15 04:12:19;;;;;;;4.75;2.50;;;;;;;-3.04;100.00;92803.78;2582555;22;20008;-87
2023/03/15 04:13:20;;;;;;;8.63;2.17;;;;;;;-2.95;100.00;92805.47;2569760;23;20075;-86
2023/03/15 04:14:21;;;;;;;6.60;2.33;;;;;;;-3.00;100.00;92808.34;2557327;23;20005;-86
2023/03/15 04:15:30;;;;;;;5.78;2.33;;;;;;;-3.08;100.00;92810.78;2569638;23;20001;-86
2023/03/15 04:16:31;;;;;;;8.32;2.63;;;;;;;-3.09;100.00;92805.91;2571080;23;20079;-86
2023/03/15 04:17:32;;;;;;;4.90;2.30;;;;;;;-3.19;100.00;92817.63;2557047;23;20015;-88
2023/03/15 04:18:33;;;;;;;4.38;2.17;;;;;;;-3.22;100.00;92823.50;2569647;22;20016;-85
2023/03/15 04:19:34;;;;;;;9.48;2.47;;;;;;;-3.09;100.00;92813.75;2582064;23;20015;-85
2023/03/15 04:20:35;;;;;;;6.63;2.25;;;;;;;-2.86;100.00;92821.75;2569171;23;20012;-87
2023/03/15 04:21:36;;;;;;;8.85;2.53;;;;;;;-2.91;100.00;92820.16;2557089;23;20024;-87
2023/03/15 04:22:38;;;;;;;8.80;2.45;;;;;;;-3.00;100.00;92821.41;2557116;23;20005;-86
2023/03/15 04:23:39;;;;;;;9.45;2.80;;;;;;;-3.14;100.00;92819.97;2570056;22;20000;-87
2023/03/15 04:24:41;;;;;;;6.22;2.63;;;;;;;-3.26;100.00;92824.53;2569576;23;20008;-88
2023/03/15 04:25:42;;;;;;;8.98;2.72;;;;;;;-3.29;100.00;92836.41;2569777;23;20030;-84
2023/03/15 04:26:44;;;;;;;8.40;2.10;;;;;;;-3.36;100.00;92833.63;2569657;23;20107;-84
2023/03/15 04:27:45;;;;;;;7.90;2.30;;;;;;;-3.33;100.00;92832.94;2569393;23;20424;-86
2023/03/15 04:28:46;;;;;;;4.85;2.30;;;;;;;-3.31;100.00;92836.72;2557044;23;20056;-84
2023/03/15 04:29:47;;;;;;;6.25;2.28;;;;;;;-3.45;100.00;92836.38;2556848;23;20425;-84
2023/03/15 04:30:49;;;;;;;5.47;2.10;;;;;;;-3.39;100.00;92835.03;2557388;23;20001;-85
2023/03/15 04:31:50;;;;;;;6.65;2.47;;;;;;;-3.41;100.00;92836.47;2570177;22;20043;-84
2023/03/15 04:33:02;;;;;;;4.35;2.13;;;;;;;-3.37;100.00;92837.31;2569654;23;20008;-87
2023/03/15 04:34:03;;;;;;;5.13;1.90;;;;;;;-3.41;100.00;92839.09;2561383;23;20321;-83
2023/03/15 04:35:05;;;;;;;5.53;2.22;;;;;;;-3.41;100.00;92836.47;2557555;23;20032;-86
2023/03/15 04:36:06;;;;;;;9.15;2.00;;;;;;;-3.31;100.00;92835.97;2569791;22;20454;-86
2023/03/15 04:37:08;;;;;;;6.78;2.08;;;;;;;-3.34;100.00;92834.03;2569738;23;20091;-84
2023/03/15 04:38:10;;;;;;;8.30;2.20;;;;;;;-3.49;100.00;92840.00;2569857;22;20004;-89
2023/03/15 04:39:11;;;;;;;5.18;2.10;;;;;;;-3.46;100.00;92834.88;2570030;23;20008;-85
2023/03/15 04:40:12;;;;;;;5.28;2.10;;;;;;;-3.49;100.00;92834.78;2557256;23;20079;-86
2023/03/15 04:41:15;;;;;;;5.47;1.95;;;;;;;-3.47;100.00;92835.94;2557072;23;20029;-86
2023/03/15 04:42:16;;;;;;;5.25;2.40;;;;;;;-3.51;100.00;92835.13;2557833;23;20005;-84
2023/03/15 04:43:17;;;;;;;6.50;2.38;;;;;;;-3.66;100.00;92833.97;2556926;23;20313;-84
2023/03/15 04:44:25;;;;;;;7.07;2.28;;;;;;;-3.72;100.00;92837.91;2557252;23;20011;-83
2023/03/15 04:45:27;;;;;;;5.43;2.17;;;;;;;-3.74;100.00;92837.47;2560060;23;20208;-84
2023/03/15 04:46:30;;;;;;;5.57;1.98;;;;;;;-3.71;100.00;92841.28;2557634;23;20459;-85
2023/03/15 04:47:31;;;;;;;3.35;2.08;;;;;;;-3.66;100.00;92839.19;2558107;23;20009;-87
2023/03/15 04:48:33;;;;;;;6.45;2.03;;;;;;;-3.64;100.00;92841.50;2581891;22;20035;-87
2023/03/15 04:49:34;;;;;;;7.32;2.22;;;;;;;-3.68;100.00;92838.03;2569693;23;20017;-84
2023/03/15 04:50:35;;;;;;;3.15;1.88;;;;;;;-3.64;100.00;92842.25;2557306;23;20009;-87
2023/03/15 04:51:36;;;;;;;4.95;2.10;;;;;;;-3.69;100.00;92841.69;2569633;23;20003;-85
2023/03/15 04:52:37;;;;;;;6.90;1.98;;;;;;;-3.75;100.00;92840.44;2594389;22;20003;-88
2023/03/15 04:53:38;;;;;;;7.25;2.03;;;;;;;-3.61;100.00;92833.72;2581842;23;20030;-86
2023/03/15 04:54:39;;;;;;;5.70;1.90;;;;;;;-3.59;100.00;92846.47;2557364;23;20009;-85
2023/03/15 04:55:40;;;;;;;10.95;2.17;;;;;;;-3.71;100.00;92849.88;2556875;23;20001;-87
2023/03/15 04:56:41;;;;;;;7.10;2.33;;;;;;;-3.75;100.00;92848.25;2557051;23;20088;-86
2023/03/15 04:57:42;;;;;;;8.00;2.05;;;;;;;-3.80;100.00;92852.63;2569362;23;20039;-87